Oulu, Finlandia

7:15 AM EEST en Septiembre 02, 2014 (GMT +0300)
Oulu | Change Station
CLOSE
Current Station
Aeropuerto
Location: Oulu,
Altura: 49 ft
Estaciones meteorológicas cercanas

Alt 49 ft 64.93 °N, 25.35 °E | Updated 25 minutes ago

Mostly Cloudy
Muy nublado
54 ° F
Sensación térmica 54 ° F
N
8
Viento Variable Viento desde SSO
Gusts 20 mph

Hoy
Alta -- | Baja -- ° F
--% Posibilidad de precipitaciones
Ayer
Alta -- | Baja -- ° F
Precip. -- pul
6:00 AM 8:34 PM
Creciente, 47% visible
Presión 30.06 pul
Visibilidad 6.2 Millas
Nubes Muy nublado 900 ft
Muy nublado 5400 ft
Punto de rocío 50 ° F
Humedad 88%
Precipitaciones 0.00 pul
Espesor de la nieve No disponible.
UV 0 de una escala de 12
Polen No disponible.
Calidad del aire No disponible.
Flu Activity No disponible.
METAR EFOU 020350Z AUTO 21007G17KT 100V240 9999 BKN009/// BKN054/// 12/10 Q1018

More Conditions Fewer Conditions

Presión 30.06 pul
Visibilidad 6.2 Millas
Nubes Muy nublado 900 ft
Muy nublado 5400 ft
Punto de rocío 50 ° F
Humedad 88%
Precipitaciones 0.00 pul
Espesor de la nieve No disponible.
UV 0 de una escala de 12
Polen No disponible.
Calidad del aire No disponible.
Flu Activity No disponible.
METAR EFOU 020350Z AUTO 21007G17KT 100V240 9999 BKN009/// BKN054/// 12/10 Q1018

More Conditions Fewer Conditions

10-Day Weather Forecast

Almanac

Astronomía

Sep. 02, 2014 Salida Puesta
Hora real 6:00 AM EEST 8:34 PM EEST
Crepúsculo civil 5:05 AM EEST 9:28 PM EEST
Crepúsculo náutico 3:47 AM EEST 10:44 PM EEST
Crepúsculo astronómico 1:50 AM EEST 12:45 AM EEST
Luna 4:11 PM EEST 10:23 PM EEST
Horas de luz 16h 23m
Horas de luz
14h 33m
Tomorrow will be 6m 44s shorter.
Creciente, 47% of the Moon is Illuminated
Hoy
Creciente
Sep 2
Cuarto creciente
Sep 8
Luna llena
Sep 15
Cuarto menguante
Sep 24
Nueva

Extremos de ayer

Máximos del país Bajas del país

Community

WunderPhotos

Upload Photos

1,749,560 ¡fotos cargadas!

WunderBlogs® & News

Nearby

Calidad del aire

Not available.

Grosos de nieve

Not available.

Actividad de terremotos

Ciudad Distance Mag. Tiempo y dato
No hay informes recientes de la actividad sísmica.
Magnitud mínima muestra es 2,5.

Temperaturas de aguas costeras

Lugar Temperatura
Sin partes meteorológicos de las estaciones

Estaciones meteorológicas cercanas